sensor_id;sensor_type;location;lat;lon;timestamp;temperature;humidity
24226;DHT22;51462;51.422;5.514;2023-06-14T00:01:18;22.70;85.80
24226;DHT22;51462;51.422;5.514;2023-06-14T00:03:45;22.80;90.90
24226;DHT22;51462;51.422;5.514;2023-06-14T00:06:12;22.90;91.30
24226;DHT22;51462;51.422;5.514;2023-06-14T00:08:38;22.70;90.60
24226;DHT22;51462;51.422;5.514;2023-06-14T00:11:05;22.90;89.60
24226;DHT22;51462;51.422;5.514;2023-06-14T00:13:31;22.90;88.90
24226;DHT22;51462;51.422;5.514;2023-06-14T00:15:56;22.80;86.60
24226;DHT22;51462;51.422;5.514;2023-06-14T00:18:22;22.60;87.50
24226;DHT22;51462;51.422;5.514;2023-06-14T00:20:50;22.40;89.60
24226;DHT22;51462;51.422;5.514;2023-06-14T00:23:16;22.50;88.50
24226;DHT22;51462;51.422;5.514;2023-06-14T00:25:42;22.60;91.50
24226;DHT22;51462;51.422;5.514;2023-06-14T00:28:07;22.50;91.10
24226;DHT22;51462;51.422;5.514;2023-06-14T00:30:33;22.50;89.30
24226;DHT22;51462;51.422;5.514;2023-06-14T00:32:59;22.40;91.00
24226;DHT22;51462;51.422;5.514;2023-06-14T00:35:24;22.40;87.50
24226;DHT22;51462;51.422;5.514;2023-06-14T00:37:50;22.30;89.20
24226;DHT22;51462;51.422;5.514;2023-06-14T00:40:16;22.10;90.00
24226;DHT22;51462;51.422;5.514;2023-06-14T00:42:42;22.00;89.90
24226;DHT22;51462;51.422;5.514;2023-06-14T00:45:08;21.90;91.30
24226;DHT22;51462;51.422;5.514;2023-06-14T00:47:35;22.00;91.60
24226;DHT22;51462;51.422;5.514;2023-06-14T00:50:03;22.00;90.20
24226;DHT22;51462;51.422;5.514;2023-06-14T00:52:30;22.10;92.10
24226;DHT22;51462;51.422;5.514;2023-06-14T00:54:57;22.10;90.10
24226;DHT22;51462;51.422;5.514;2023-06-14T00:57:23;22.10;89.50
24226;DHT22;51462;51.422;5.514;2023-06-14T00:59:49;22.00;91.10
24226;DHT22;51462;51.422;5.514;2023-06-14T01:02:16;21.90;92.10
24226;DHT22;51462;51.422;5.514;2023-06-14T01:04:43;21.80;91.50
24226;DHT22;51462;51.422;5.514;2023-06-14T01:15:15;21.80;91.50
24226;DHT22;51462;51.422;5.514;2023-06-14T01:17:42;21.70;93.00
24226;DHT22;51462;51.422;5.514;2023-06-14T01:20:12;21.80;95.00
24226;DHT22;51462;51.422;5.514;2023-06-14T01:22:51;21.70;92.70
24226;DHT22;51462;51.422;5.514;2023-06-14T01:25:18;21.60;91.40
24226;DHT22;51462;51.422;5.514;2023-06-14T01:27:57;21.70;93.40
24226;DHT22;51462;51.422;5.514;2023-06-14T01:30:24;21.80;95.60
24226;DHT22;51462;51.422;5.514;2023-06-14T01:32:52;21.70;95.70
24226;DHT22;51462;51.422;5.514;2023-06-14T01:35:18;21.60;92.20
24226;DHT22;51462;51.422;5.514;2023-06-14T01:37:47;21.40;91.70
24226;DHT22;51462;51.422;5.514;2023-06-14T01:40:13;21.40;91.30
24226;DHT22;51462;51.422;5.514;2023-06-14T01:42:40;21.20;94.60
24226;DHT22;51462;51.422;5.514;2023-06-14T01:45:07;21.10;95.60
24226;DHT22;51462;51.422;5.514;2023-06-14T01:47:33;21.10;96.30
24226;DHT22;51462;51.422;5.514;2023-06-14T01:50:00;21.00;94.70
24226;DHT22;51462;51.422;5.514;2023-06-14T01:52:26;20.90;93.90
24226;DHT22;51462;51.422;5.514;2023-06-14T01:54:52;20.80;94.50
24226;DHT22;51462;51.422;5.514;2023-06-14T01:57:18;20.80;92.90
24226;DHT22;51462;51.422;5.514;2023-06-14T01:59:43;20.80;97.70
24226;DHT22;51462;51.422;5.514;2023-06-14T02:02:14;20.80;96.30
24226;DHT22;51462;51.422;5.514;2023-06-14T02:04:40;20.80;95.80
24226;DHT22;51462;51.422;5.514;2023-06-14T02:07:06;20.80;95.90
24226;DHT22;51462;51.422;5.514;2023-06-14T02:09:33;20.70;92.40
24226;DHT22;51462;51.422;5.514;2023-06-14T02:11:59;20.80;97.50
24226;DHT22;51462;51.422;5.514;2023-06-14T02:14:24;20.80;97.40
24226;DHT22;51462;51.422;5.514;2023-06-14T02:16:50;20.60;93.60
24226;DHT22;51462;51.422;5.514;2023-06-14T02:19:16;20.70;97.30
24226;DHT22;51462;51.422;5.514;2023-06-14T02:21:43;20.60;94.60
24226;DHT22;51462;51.422;5.514;2023-06-14T02:24:09;20.60;98.00
24226;DHT22;51462;51.422;5.514;2023-06-14T02:26:35;20.40;94.00
24226;DHT22;51462;51.422;5.514;2023-06-14T02:29:01;20.40;97.70
24226;DHT22;51462;51.422;5.514;2023-06-14T02:31:26;20.50;97.60
24226;DHT22;51462;51.422;5.514;2023-06-14T02:33:52;20.30;93.60
24226;DHT22;51462;51.422;5.514;2023-06-14T02:36:18;20.00;93.30
24226;DHT22;51462;51.422;5.514;2023-06-14T02:38:43;20.10;93.90
24226;DHT22;51462;51.422;5.514;2023-06-14T02:41:10;19.90;96.30
24226;DHT22;51462;51.422;5.514;2023-06-14T02:43:36;20.00;96.00
24226;DHT22;51462;51.422;5.514;2023-06-14T02:46:01;20.10;99.20
24226;DHT22;51462;51.422;5.514;2023-06-14T02:48:27;19.90;94.20
24226;DHT22;51462;51.422;5.514;2023-06-14T02:50:53;19.90;93.90
24226;DHT22;51462;51.422;5.514;2023-06-14T02:53:18;19.90;96.60
24226;DHT22;51462;51.422;5.514;2023-06-14T02:55:44;19.90;97.50
24226;DHT22;51462;51.422;5.514;2023-06-14T02:58:09;19.80;94.20
24226;DHT22;51462;51.422;5.514;2023-06-14T03:00:35;19.70;94.10
24226;DHT22;51462;51.422;5.514;2023-06-14T03:03:01;19.60;95.40
24226;DHT22;51462;51.422;5.514;2023-06-14T03:05:27;19.70;95.40
24226;DHT22;51462;51.422;5.514;2023-06-14T03:07:53;19.60;95.70
24226;DHT22;51462;51.422;5.514;2023-06-14T03:10:19;19.60;98.20
24226;DHT22;51462;51.422;5.514;2023-06-14T03:12:45;19.40;95.60
24226;DHT22;51462;51.422;5.514;2023-06-14T03:15:10;19.30;95.50
24226;DHT22;51462;51.422;5.514;2023-06-14T03:17:38;19.00;95.90
24226;DHT22;51462;51.422;5.514;2023-06-14T03:20:04;19.00;95.70
24226;DHT22;51462;51.422;5.514;2023-06-14T03:22:32;19.00;96.00
24226;DHT22;51462;51.422;5.514;2023-06-14T03:25:00;19.00;99.90
24226;DHT22;51462;51.422;5.514;2023-06-14T03:27:26;19.20;97.50
24226;DHT22;51462;51.422;5.514;2023-06-14T03:29:54;19.30;99.00
24226;DHT22;51462;51.422;5.514;2023-06-14T03:32:19;19.30;96.30
24226;DHT22;51462;51.422;5.514;2023-06-14T03:34:45;19.10;96.70
24226;DHT22;51462;51.422;5.514;2023-06-14T03:37:10;19.20;97.10
24226;DHT22;51462;51.422;5.514;2023-06-14T03:39:36;19.10;97.40
24226;DHT22;51462;51.422;5.514;2023-06-14T03:42:02;19.10;98.40
24226;DHT22;51462;51.422;5.514;2023-06-14T03:44:27;19.20;98.90
24226;DHT22;51462;51.422;5.514;2023-06-14T03:46:53;19.20;98.60
24226;DHT22;51462;51.422;5.514;2023-06-14T03:49:18;19.00;99.90
24226;DHT22;51462;51.422;5.514;2023-06-14T03:51:44;18.80;99.00
24226;DHT22;51462;51.422;5.514;2023-06-14T03:54:10;19.00;99.50
24226;DHT22;51462;51.422;5.514;2023-06-14T03:56:35;19.10;99.90
24226;DHT22;51462;51.422;5.514;2023-06-14T03:59:01;19.00;99.90
24226;DHT22;51462;51.422;5.514;2023-06-14T04:01:27;19.10;99.80
24226;DHT22;51462;51.422;5.514;2023-06-14T04:03:56;19.00;99.20
24226;DHT22;51462;51.422;5.514;2023-06-14T04:06:22;18.90;98.90
24226;DHT22;51462;51.422;5.514;2023-06-14T04:08:50;18.80;99.20
24226;DHT22;51462;51.422;5.514;2023-06-14T04:11:16;18.80;99.90
24226;DHT22;51462;51.422;5.514;2023-06-14T04:13:41;18.80;99.90
24226;DHT22;51462;51.422;5.514;2023-06-14T04:16:07;18.80;99.90
24226;DHT22;51462;51.422;5.514;2023-06-14T04:18:33;18.70;99.90
24226;DHT22;51462;51.422;5.514;2023-06-14T04:20:58;18.70;99.90
24226;DHT22;51462;51.422;5.514;2023-06-14T04:23:24;18.50;99.90
24226;DHT22;51462;51.422;5.514;2023-06-14T04:25:50;18.80;99.90
24226;DHT22;51462;51.422;5.514;2023-06-14T04:28:16;18.80;99.90
24226;DHT22;51462;51.422;5.514;2023-06-14T04:30:43;18.90;99.90
24226;DHT22;51462;51.422;5.514;2023-06-14T04:33:08;18.80;99.90
24226;DHT22;51462;51.422;5.514;2023-06-14T04:35:35;18.80;99.90
24226;DHT22;51462;51.422;5.514;2023-06-14T04:38:01;18.60;99.90
24226;DHT22;51462;51.422;5.514;2023-06-14T04:40:30;18.70;99.90
24226;DHT22;51462;51.422;5.514;2023-06-14T04:42:56;19.10;99.90
24226;DHT22;51462;51.422;5.514;2023-06-14T04:45:22;19.10;99.90
24226;DHT22;51462;51.422;5.514;2023-06-14T04:47:49;19.20;99.90
24226;DHT22;51462;51.422;5.514;2023-06-14T04:50:16;19.10;99.90
24226;DHT22;51462;51.422;5.514;2023-06-14T04:52:42;19.30;99.90
24226;DHT22;51462;51.422;5.514;2023-06-14T04:55:08;19.50;99.90
24226;DHT22;51462;51.422;5.514;2023-06-14T04:57:34;19.50;99.90
24226;DHT22;51462;51.422;5.514;2023-06-14T05:00:00;19.40;99.90
24226;DHT22;51462;51.422;5.514;2023-06-14T05:02:26;19.70;99.90
24226;DHT22;51462;51.422;5.514;2023-06-14T05:04:53;19.70;99.90
24226;DHT22;51462;51.422;5.514;2023-06-14T05:07:19;19.70;99.90
24226;DHT22;51462;51.422;5.514;2023-06-14T05:09:45;19.70;99.90
24226;DHT22;51462;51.422;5.514;2023-06-14T05:12:11;19.60;99.90
24226;DHT22;51462;51.422;5.514;2023-06-14T05:14:37;19.60;99.90
24226;DHT22;51462;51.422;5.514;2023-06-14T05:17:02;19.40;99.90
24226;DHT22;51462;51.422;5.514;2023-06-14T05:19:28;19.60;99.90
24226;DHT22;51462;51.422;5.514;2023-06-14T05:21:54;19.60;99.90
24226;DHT22;51462;51.422;5.514;2023-06-14T05:24:20;19.80;99.90
24226;DHT22;51462;51.422;5.514;2023-06-14T05:26:46;19.80;99.90
24226;DHT22;51462;51.422;5.514;2023-06-14T05:29:12;19.70;99.90
24226;DHT22;51462;51.422;5.514;2023-06-14T05:31:37;19.80;99.90
24226;DHT22;51462;51.422;5.514;2023-06-14T05:34:03;19.80;99.90
24226;DHT22;51462;51.422;5.514;2023-06-14T05:36:29;19.70;99.90
24226;DHT22;51462;51.422;5.514;2023-06-14T05:38:55;19.80;99.90
24226;DHT22;51462;51.422;5.514;2023-06-14T05:41:26;19.80;99.90
24226;DHT22;51462;51.422;5.514;2023-06-14T05:43:52;20.00;99.90
24226;DHT22;51462;51.422;5.514;2023-06-14T05:46:17;20.30;99.90
24226;DHT22;51462;51.422;5.514;2023-06-14T05:48:47;20.20;99.90
24226;DHT22;51462;51.422;5.514;2023-06-14T05:51:13;19.90;99.90
24226;DHT22;51462;51.422;5.514;2023-06-14T05:53:39;20.10;99.90
24226;DHT22;51462;51.422;5.514;2023-06-14T05:56:04;20.30;99.90
24226;DHT22;51462;51.422;5.514;2023-06-14T05:58:30;20.40;99.60
24226;DHT22;51462;51.422;5.514;2023-06-14T06:00:55;20.30;99.90
24226;DHT22;51462;51.422;5.514;2023-06-14T06:03:21;20.40;99.20
24226;DHT22;51462;51.422;5.514;2023-06-14T06:05:48;20.50;99.50
24226;DHT22;51462;51.422;5.514;2023-06-14T06:08:13;20.50;98.90
24226;DHT22;51462;51.422;5.514;2023-06-14T06:10:39;20.40;99.60
24226;DHT22;51462;51.422;5.514;2023-06-14T06:13:05;20.30;99.90
24226;DHT22;51462;51.422;5.514;2023-06-14T06:15:30;20.30;99.70
24226;DHT22;51462;51.422;5.514;2023-06-14T06:17:56;20.50;99.90
24226;DHT22;51462;51.422;5.514;2023-06-14T06:20:23;20.60;99.90
24226;DHT22;51462;51.422;5.514;2023-06-14T06:22:53;20.60;98.60
24226;DHT22;51462;51.422;5.514;2023-06-14T06:25:19;20.70;98.10
24226;DHT22;51462;51.422;5.514;2023-06-14T06:27:44;20.70;98.50
24226;DHT22;51462;51.422;5.514;2023-06-14T06:30:11;20.80;99.20
24226;DHT22;51462;51.422;5.514;2023-06-14T06:32:36;20.80;98.70
24226;DHT22;51462;51.422;5.514;2023-06-14T06:35:02;20.80;98.50
24226;DHT22;51462;51.422;5.514;2023-06-14T06:37:28;20.80;98.50
24226;DHT22;51462;51.422;5.514;2023-06-14T06:39:54;21.00;98.60
24226;DHT22;51462;51.422;5.514;2023-06-14T06:42:19;21.00;98.80
24226;DHT22;51462;51.422;5.514;2023-06-14T06:44:45;21.00;98.30
24226;DHT22;51462;51.422;5.514;2023-06-14T06:47:10;21.00;98.60
24226;DHT22;51462;51.422;5.514;2023-06-14T06:49:36;21.00;98.10
24226;DHT22;51462;51.422;5.514;2023-06-14T06:52:06;21.10;98.20
24226;DHT22;51462;51.422;5.514;2023-06-14T06:54:32;21.30;98.00
24226;DHT22;51462;51.422;5.514;2023-06-14T06:56:58;21.40;97.40
24226;DHT22;51462;51.422;5.514;2023-06-14T06:59:24;21.40;97.20
24226;DHT22;51462;51.422;5.514;2023-06-14T07:01:50;21.30;96.70
24226;DHT22;51462;51.422;5.514;2023-06-14T07:04:15;21.30;97.40
24226;DHT22;51462;51.422;5.514;2023-06-14T07:06:42;21.40;97.40
24226;DHT22;51462;51.422;5.514;2023-06-14T07:09:08;21.50;96.60
24226;DHT22;51462;51.422;5.514;2023-06-14T07:11:38;21.70;97.30
24226;DHT22;51462;51.422;5.514;2023-06-14T07:14:04;21.60;96.60
24226;DHT22;51462;51.422;5.514;2023-06-14T07:16:30;21.80;96.60
24226;DHT22;51462;51.422;5.514;2023-06-14T07:18:55;21.70;95.80
24226;DHT22;51462;51.422;5.514;2023-06-14T07:21:21;21.70;96.10
24226;DHT22;51462;51.422;5.514;2023-06-14T07:23:47;21.80;96.60
24226;DHT22;51462;51.422;5.514;2023-06-14T07:26:13;21.90;95.90
24226;DHT22;51462;51.422;5.514;2023-06-14T07:28:38;22.00;96.30
24226;DHT22;51462;51.422;5.514;2023-06-14T07:31:05;22.00;96.20
24226;DHT22;51462;51.422;5.514;2023-06-14T07:33:30;22.00;96.00
24226;DHT22;51462;51.422;5.514;2023-06-14T07:35:56;21.90;96.10
24226;DHT22;51462;51.422;5.514;2023-06-14T07:38:21;22.10;96.20
24226;DHT22;51462;51.422;5.514;2023-06-14T07:40:47;22.10;96.10
24226;DHT22;51462;51.422;5.514;2023-06-14T07:43:12;22.10;96.30
24226;DHT22;51462;51.422;5.514;2023-06-14T07:45:38;22.10;95.30
24226;DHT22;51462;51.422;5.514;2023-06-14T07:48:04;22.10;95.10
24226;DHT22;51462;51.422;5.514;2023-06-14T07:50:29;22.20;96.00
24226;DHT22;51462;51.422;5.514;2023-06-14T07:52:55;22.20;96.10
24226;DHT22;51462;51.422;5.514;2023-06-14T07:55:21;22.30;95.80
24226;DHT22;51462;51.422;5.514;2023-06-14T07:57:47;22.40;95.90
24226;DHT22;51462;51.422;5.514;2023-06-14T08:00:13;22.40;95.60
24226;DHT22;51462;51.422;5.514;2023-06-14T08:02:41;22.40;95.30
24226;DHT22;51462;51.422;5.514;2023-06-14T08:05:09;22.50;96.00
24226;DHT22;51462;51.422;5.514;2023-06-14T08:07:35;22.50;95.10
24226;DHT22;51462;51.422;5.514;2023-06-14T08:10:01;22.60;95.50
24226;DHT22;51462;51.422;5.514;2023-06-14T08:12:26;22.60;94.00
24226;DHT22;51462;51.422;5.514;2023-06-14T08:14:52;22.70;95.00
24226;DHT22;51462;51.422;5.514;2023-06-14T08:17:18;22.80;94.70
24226;DHT22;51462;51.422;5.514;2023-06-14T08:19:43;22.80;94.50
24226;DHT22;51462;51.422;5.514;2023-06-14T08:22:09;22.80;94.70
24226;DHT22;51462;51.422;5.514;2023-06-14T08:24:37;22.80;95.30
24226;DHT22;51462;51.422;5.514;2023-06-14T08:27:02;22.90;93.90
24226;DHT22;51462;51.422;5.514;2023-06-14T08:29:28;23.00;94.80
24226;DHT22;51462;51.422;5.514;2023-06-14T08:31:56;23.10;95.00
24226;DHT22;51462;51.422;5.514;2023-06-14T08:34:22;23.10;94.80
24226;DHT22;51462;51.422;5.514;2023-06-14T08:36:52;23.10;94.90
24226;DHT22;51462;51.422;5.514;2023-06-14T08:39:17;23.10;93.50
24226;DHT22;51462;51.422;5.514;2023-06-14T08:41:46;23.20;94.50
24226;DHT22;51462;51.422;5.514;2023-06-14T08:44:13;23.30;92.80
24226;DHT22;51462;51.422;5.514;2023-06-14T08:46:41;23.20;94.30
24226;DHT22;51462;51.422;5.514;2023-06-14T08:49:08;23.30;93.90
24226;DHT22;51462;51.422;5.514;2023-06-14T08:51:36;23.30;93.80
24226;DHT22;51462;51.422;5.514;2023-06-14T08:54:03;23.40;92.40
24226;DHT22;51462;51.422;5.514;2023-06-14T08:56:32;23.40;94.30
24226;DHT22;51462;51.422;5.514;2023-06-14T08:58:59;23.50;93.90
24226;DHT22;51462;51.422;5.514;2023-06-14T09:01:36;23.50;94.00
24226;DHT22;51462;51.422;5.514;2023-06-14T09:04:01;23.50;93.40
24226;DHT22;51462;51.422;5.514;2023-06-14T09:06:28;23.60;93.00
24226;DHT22;51462;51.422;5.514;2023-06-14T09:08:55;23.50;91.90
24226;DHT22;51462;51.422;5.514;2023-06-14T09:11:24;23.60;92.70
24226;DHT22;51462;51.422;5.514;2023-06-14T09:13:51;23.70;91.90
24226;DHT22;51462;51.422;5.514;2023-06-14T09:16:16;23.80;92.30
24226;DHT22;51462;51.422;5.514;2023-06-14T09:18:47;23.80;91.90
24226;DHT22;51462;51.422;5.514;2023-06-14T09:21:14;23.80;93.90
24226;DHT22;51462;51.422;5.514;2023-06-14T09:23:42;23.90;93.00
24226;DHT22;51462;51.422;5.514;2023-06-14T09:26:09;23.80;92.10
24226;DHT22;51462;51.422;5.514;2023-06-14T09:28:35;23.90;91.50
24226;DHT22;51462;51.422;5.514;2023-06-14T09:31:01;23.90;91.90
24226;DHT22;51462;51.422;5.514;2023-06-14T09:33:27;24.10;91.70
24226;DHT22;51462;51.422;5.514;2023-06-14T09:35:54;24.10;91.40
24226;DHT22;51462;51.422;5.514;2023-06-14T09:38:20;24.10;91.10
24226;DHT22;51462;51.422;5.514;2023-06-14T09:40:46;24.10;91.50
24226;DHT22;51462;51.422;5.514;2023-06-14T09:43:11;24.20;92.00
24226;DHT22;51462;51.422;5.514;2023-06-14T09:45:40;24.20;89.70
24226;DHT22;51462;51.422;5.514;2023-06-14T09:48:07;24.30;91.30
24226;DHT22;51462;51.422;5.514;2023-06-14T09:50:34;24.40;90.30
24226;DHT22;51462;51.422;5.514;2023-06-14T09:53:06;24.40;88.70
24226;DHT22;51462;51.422;5.514;2023-06-14T09:55:34;24.30;89.70
24226;DHT22;51462;51.422;5.514;2023-06-14T09:58:04;24.30;90.50
24226;DHT22;51462;51.422;5.514;2023-06-14T10:00:32;24.40;91.00
24226;DHT22;51462;51.422;5.514;2023-06-14T10:03:03;24.40;91.50
24226;DHT22;51462;51.422;5.514;2023-06-14T10:05:32;24.60;85.20
24226;DHT22;51462;51.422;5.514;2023-06-14T10:08:04;24.60;89.00
24226;DHT22;51462;51.422;5.514;2023-06-14T10:10:30;24.70;90.30
24226;DHT22;51462;51.422;5.514;2023-06-14T10:12:56;24.80;85.60
24226;DHT22;51462;51.422;5.514;2023-06-14T10:15:43;24.80;88.20
24226;DHT22;51462;51.422;5.514;2023-06-14T10:18:32;24.70;90.20
24226;DHT22;51462;51.422;5.514;2023-06-14T10:23:49;24.80;89.10
24226;DHT22;51462;51.422;5.514;2023-06-14T10:26:23;25.00;82.60
24226;DHT22;51462;51.422;5.514;2023-06-14T10:29:15;24.80;88.80
24226;DHT22;51462;51.422;5.514;2023-06-14T10:31:42;25.00;84.90
24226;DHT22;51462;51.422;5.514;2023-06-14T10:34:08;25.10;87.10
24226;DHT22;51462;51.422;5.514;2023-06-14T10:36:34;25.20;85.20
24226;DHT22;51462;51.422;5.514;2023-06-14T10:39:17;25.10;90.50
24226;DHT22;51462;51.422;5.514;2023-06-14T10:41:52;25.10;88.50
24226;DHT22;51462;51.422;5.514;2023-06-14T10:46:48;25.20;82.00
24226;DHT22;51462;51.422;5.514;2023-06-14T10:49:18;25.30;88.90
24226;DHT22;51462;51.422;5.514;2023-06-14T10:51:50;25.50;86.90
24226;DHT22;51462;51.422;5.514;2023-06-14T10:54:17;25.60;82.90
24226;DHT22;51462;51.422;5.514;2023-06-14T10:56:52;25.60;87.80
24226;DHT22;51462;51.422;5.514;2023-06-14T10:59:19;25.50;89.10
24226;DHT22;51462;51.422;5.514;2023-06-14T11:04:48;25.60;90.40
24226;DHT22;51462;51.422;5.514;2023-06-14T11:07:42;25.80;89.70
24226;DHT22;51462;51.422;5.514;2023-06-14T11:13:06;26.10;81.50
24226;DHT22;51462;51.422;5.514;2023-06-14T11:15:34;26.20;80.30
24226;DHT22;51462;51.422;5.514;2023-06-14T11:18:02;26.10;82.80
24226;DHT22;51462;51.422;5.514;2023-06-14T11:20:30;26.20;80.10
24226;DHT22;51462;51.422;5.514;2023-06-14T11:22:56;26.20;87.20
24226;DHT22;51462;51.422;5.514;2023-06-14T11:25:21;26.30;84.70
24226;DHT22;51462;51.422;5.514;2023-06-14T11:27:49;26.40;89.10
24226;DHT22;51462;51.422;5.514;2023-06-14T11:30:15;26.30;87.60
24226;DHT22;51462;51.422;5.514;2023-06-14T11:32:41;26.40;84.00
24226;DHT22;51462;51.422;5.514;2023-06-14T11:35:08;26.40;87.50
24226;DHT22;51462;51.422;5.514;2023-06-14T11:37:36;26.40;82.60
24226;DHT22;51462;51.422;5.514;2023-06-14T11:40:03;26.50;89.30
24226;DHT22;51462;51.422;5.514;2023-06-14T11:42:33;26.50;84.40
24226;DHT22;51462;51.422;5.514;2023-06-14T11:44:59;26.60;80.90
24226;DHT22;51462;51.422;5.514;2023-06-14T11:47:30;26.50;90.20
24226;DHT22;51462;51.422;5.514;2023-06-14T11:49:58;26.60;86.70
24226;DHT22;51462;51.422;5.514;2023-06-14T11:52:24;26.70;90.20
24226;DHT22;51462;51.422;5.514;2023-06-14T11:54:49;26.80;86.70
24226;DHT22;51462;51.422;5.514;2023-06-14T11:57:18;27.00;86.60
24226;DHT22;51462;51.422;5.514;2023-06-14T11:59:44;27.00;86.90
24226;DHT22;51462;51.422;5.514;2023-06-14T12:02:13;27.00;89.00
24226;DHT22;51462;51.422;5.514;2023-06-14T12:04:41;27.20;84.20
24226;DHT22;51462;51.422;5.514;2023-06-14T12:07:16;27.30;85.50
24226;DHT22;51462;51.422;5.514;2023-06-14T12:12:24;27.30;84.90
24226;DHT22;51462;51.422;5.514;2023-06-14T12:14:53;27.30;88.70
24226;DHT22;51462;51.422;5.514;2023-06-14T12:17:19;27.50;86.50
24226;DHT22;51462;51.422;5.514;2023-06-14T12:19:46;27.70;84.40
24226;DHT22;51462;51.422;5.514;2023-06-14T12:22:13;28.00;84.10
24226;DHT22;51462;51.422;5.514;2023-06-14T12:24:39;28.10;81.40
24226;DHT22;51462;51.422;5.514;2023-06-14T12:27:05;28.00;82.80
24226;DHT22;51462;51.422;5.514;2023-06-14T12:29:31;27.90;78.90
24226;DHT22;51462;51.422;5.514;2023-06-14T12:31:57;28.30;86.80
24226;DHT22;51462;51.422;5.514;2023-06-14T12:34:26;28.20;86.90
24226;DHT22;51462;51.422;5.514;2023-06-14T12:36:57;28.10;85.00
24226;DHT22;51462;51.422;5.514;2023-06-14T12:39:23;28.10;86.40
24226;DHT22;51462;51.422;5.514;2023-06-14T12:41:49;28.50;82.60
24226;DHT22;51462;51.422;5.514;2023-06-14T12:44:15;28.50;83.50
24226;DHT22;51462;51.422;5.514;2023-06-14T12:46:42;28.40;85.70
24226;DHT22;51462;51.422;5.514;2023-06-14T12:49:09;28.60;81.10
24226;DHT22;51462;51.422;5.514;2023-06-14T12:51:36;29.00;84.70
24226;DHT22;51462;51.422;5.514;2023-06-14T12:54:02;28.80;86.50
24226;DHT22;51462;51.422;5.514;2023-06-14T12:56:27;29.20;81.20
24226;DHT22;51462;51.422;5.514;2023-06-14T12:58:53;29.30;83.00
24226;DHT22;51462;51.422;5.514;2023-06-14T13:01:19;29.60;81.30
24226;DHT22;51462;51.422;5.514;2023-06-14T13:03:46;29.80;81.90
24226;DHT22;51462;51.422;5.514;2023-06-14T13:06:11;29.30;81.20
24226;DHT22;51462;51.422;5.514;2023-06-14T13:08:37;29.10;82.20
24226;DHT22;51462;51.422;5.514;2023-06-14T13:11:02;29.20;81.60
24226;DHT22;51462;51.422;5.514;2023-06-14T13:13:28;29.40;81.60
24226;DHT22;51462;51.422;5.514;2023-06-14T13:15:53;29.70;82.10
24226;DHT22;51462;51.422;5.514;2023-06-14T13:18:19;29.60;84.60
24226;DHT22;51462;51.422;5.514;2023-06-14T13:20:46;29.80;78.20
24226;DHT22;51462;51.422;5.514;2023-06-14T13:23:12;29.80;80.40
24226;DHT22;51462;51.422;5.514;2023-06-14T13:25:38;29.90;78.40
24226;DHT22;51462;51.422;5.514;2023-06-14T13:28:04;29.90;81.80
24226;DHT22;51462;51.422;5.514;2023-06-14T13:30:30;30.20;79.60
24226;DHT22;51462;51.422;5.514;2023-06-14T13:32:56;30.60;79.10
24226;DHT22;51462;51.422;5.514;2023-06-14T13:35:22;30.80;77.40
24226;DHT22;51462;51.422;5.514;2023-06-14T13:37:48;30.50;80.10
24226;DHT22;51462;51.422;5.514;2023-06-14T13:40:13;30.50;78.70
24226;DHT22;51462;51.422;5.514;2023-06-14T13:42:39;31.00;81.10
24226;DHT22;51462;51.422;5.514;2023-06-14T13:45:06;30.50;79.40
24226;DHT22;51462;51.422;5.514;2023-06-14T13:47:32;30.40;79.20
24226;DHT22;51462;51.422;5.514;2023-06-14T13:49:58;30.40;73.80
24226;DHT22;51462;51.422;5.514;2023-06-14T13:52:24;31.10;72.10
24226;DHT22;51462;51.422;5.514;2023-06-14T13:54:49;31.30;78.70
24226;DHT22;51462;51.422;5.514;2023-06-14T13:57:18;31.50;73.90
24226;DHT22;51462;51.422;5.514;2023-06-14T13:59:43;31.20;76.60
24226;DHT22;51462;51.422;5.514;2023-06-14T14:02:10;31.40;80.10
24226;DHT22;51462;51.422;5.514;2023-06-14T14:04:37;31.60;75.50
24226;DHT22;51462;51.422;5.514;2023-06-14T14:07:04;31.80;78.70
24226;DHT22;51462;51.422;5.514;2023-06-14T14:09:31;31.80;76.50
24226;DHT22;51462;51.422;5.514;2023-06-14T14:11:57;32.10;74.60
24226;DHT22;51462;51.422;5.514;2023-06-14T14:14:23;32.70;76.90
24226;DHT22;51462;51.422;5.514;2023-06-14T14:16:49;32.00;70.20
24226;DHT22;51462;51.422;5.514;2023-06-14T14:19:17;33.00;72.00
24226;DHT22;51462;51.422;5.514;2023-06-14T14:21:44;31.90;77.10
24226;DHT22;51462;51.422;5.514;2023-06-14T14:24:10;31.70;80.00
24226;DHT22;51462;51.422;5.514;2023-06-14T14:26:35;31.90;77.40
24226;DHT22;51462;51.422;5.514;2023-06-14T14:29:01;32.20;67.10
24226;DHT22;51462;51.422;5.514;2023-06-14T14:31:28;32.40;72.70
24226;DHT22;51462;51.422;5.514;2023-06-14T14:33:53;32.20;72.20
24226;DHT22;51462;51.422;5.514;2023-06-14T14:36:19;32.40;65.40
24226;DHT22;51462;51.422;5.514;2023-06-14T14:38:45;33.20;69.20
24226;DHT22;51462;51.422;5.514;2023-06-14T14:41:10;32.90;75.50
24226;DHT22;51462;51.422;5.514;2023-06-14T14:43:36;32.90;72.30
24226;DHT22;51462;51.422;5.514;2023-06-14T14:46:01;33.10;70.30
24226;DHT22;51462;51.422;5.514;2023-06-14T14:48:27;32.70;69.90
24226;DHT22;51462;51.422;5.514;2023-06-14T14:50:52;32.50;74.30
24226;DHT22;51462;51.422;5.514;2023-06-14T14:53:18;32.10;76.70
24226;DHT22;51462;51.422;5.514;2023-06-14T14:55:44;32.50;75.50
24226;DHT22;51462;51.422;5.514;2023-06-14T14:58:09;32.40;74.10
24226;DHT22;51462;51.422;5.514;2023-06-14T15:00:35;32.90;76.30
24226;DHT22;51462;51.422;5.514;2023-06-14T15:03:01;32.30;78.90
24226;DHT22;51462;51.422;5.514;2023-06-14T15:05:26;33.50;71.60
24226;DHT22;51462;51.422;5.514;2023-06-14T15:07:52;33.50;76.20
24226;DHT22;51462;51.422;5.514;2023-06-14T15:10:18;33.90;69.40
24226;DHT22;51462;51.422;5.514;2023-06-14T15:12:43;33.70;69.30
24226;DHT22;51462;51.422;5.514;2023-06-14T15:15:09;32.90;75.30
24226;DHT22;51462;51.422;5.514;2023-06-14T15:17:35;32.40;76.40
24226;DHT22;51462;51.422;5.514;2023-06-14T15:20:00;32.90;70.00
24226;DHT22;51462;51.422;5.514;2023-06-14T15:22:26;32.90;70.20
24226;DHT22;51462;51.422;5.514;2023-06-14T15:24:52;33.70;63.80
24226;DHT22;51462;51.422;5.514;2023-06-14T15:27:17;33.60;68.20
24226;DHT22;51462;51.422;5.514;2023-06-14T15:29:43;33.70;73.90
24226;DHT22;51462;51.422;5.514;2023-06-14T15:32:09;33.80;75.50
24226;DHT22;51462;51.422;5.514;2023-06-14T15:34:36;33.40;74.10
24226;DHT22;51462;51.422;5.514;2023-06-14T15:37:05;33.70;69.60
24226;DHT22;51462;51.422;5.514;2023-06-14T15:39:31;34.00;73.30
24226;DHT22;51462;51.422;5.514;2023-06-14T15:41:57;34.00;67.20
24226;DHT22;51462;51.422;5.514;2023-06-14T15:44:23;33.90;67.40
24226;DHT22;51462;51.422;5.514;2023-06-14T15:46:49;34.20;65.10
24226;DHT22;51462;51.422;5.514;2023-06-14T15:49:14;34.40;70.80